createdAt,value
2022-08-16T00:00:04.175Z,42.54
2022-08-16T00:00:56.925Z,40.61
2022-08-16T00:01:55.963Z,40.12
2022-08-16T00:02:55.944Z,40.93
2022-08-16T00:03:56.144Z,40.93
2022-08-16T00:04:59.937Z,41.09
2022-08-16T00:05:57.449Z,39.80
2022-08-16T00:06:55.853Z,42.22
2022-08-16T00:07:56.941Z,38.35
2022-08-16T00:08:55.846Z,42.22
2022-08-16T00:09:55.837Z,42.22
2022-08-16T00:10:55.904Z,42.86
2022-08-16T00:11:55.919Z,42.06
2022-08-16T00:12:55.745Z,41.57
2022-08-16T00:13:55.838Z,38.83
2022-08-16T00:14:56.514Z,42.38
2022-08-16T00:15:55.902Z,41.89
2022-08-16T00:17:05.551Z,38.03
2022-08-16T00:17:57.496Z,38.99
2022-08-16T00:18:55.781Z,38.99
2022-08-16T00:19:55.731Z,38.19
2022-08-16T00:20:55.729Z,38.51
2022-08-16T00:22:01.005Z,38.19
2022-08-16T00:22:56.699Z,38.19
2022-08-16T00:23:55.705Z,38.51
2022-08-16T00:24:55.680Z,39.16
2022-08-16T00:26:36.408Z,39.16
2022-08-16T00:26:56.654Z,39.48
2022-08-16T00:27:55.656Z,39.16
2022-08-16T00:28:55.655Z,36.58
2022-08-16T00:30:08.672Z,37.54
2022-08-16T00:30:56.643Z,37.38
2022-08-16T00:32:00.855Z,37.71
2022-08-16T00:32:57.203Z,38.67
2022-08-16T00:33:55.619Z,37.71
2022-08-16T00:34:55.575Z,37.71
2022-08-16T00:35:56.586Z,37.87
2022-08-16T00:36:55.915Z,38.19
2022-08-16T00:37:58.397Z,37.87
2022-08-16T00:38:56.317Z,37.87
2022-08-16T00:39:57.284Z,38.03
2022-08-16T00:40:55.639Z,38.99
2022-08-16T00:41:55.505Z,45.28
2022-08-16T00:42:55.493Z,39.80
2022-08-16T00:43:55.490Z,38.99
2022-08-16T00:44:55.523Z,38.67
2022-08-16T00:46:00.273Z,39.32
2022-08-16T00:47:02.468Z,39.48
2022-08-16T00:47:56.599Z,38.51
2022-08-16T00:48:55.502Z,38.35
2022-08-16T00:49:56.295Z,38.51
2022-08-16T00:50:55.634Z,38.19
2022-08-16T00:51:55.754Z,38.35
2022-08-16T00:52:55.796Z,37.87
2022-08-16T00:53:55.784Z,38.03
2022-08-16T00:54:55.406Z,38.19
2022-08-16T00:55:55.368Z,38.03
2022-08-16T00:56:58.035Z,38.51
2022-08-16T00:57:58.500Z,38.67
2022-08-16T00:58:55.336Z,38.99
2022-08-16T00:59:59.654Z,38.03
2022-08-16T01:00:56.441Z,38.99
2022-08-16T01:01:55.341Z,39.16
2022-08-16T01:02:55.295Z,38.67
2022-08-16T01:03:55.294Z,38.19
2022-08-16T01:05:10.455Z,38.19
2022-08-16T01:05:56.345Z,39.16
2022-08-16T01:07:01.347Z,38.99
2022-08-16T01:07:56.247Z,37.87
2022-08-16T01:08:55.244Z,38.35
2022-08-16T01:09:55.233Z,38.51
2022-08-16T01:10:55.211Z,38.83
2022-08-16T01:11:55.491Z,38.83
2022-08-16T01:12:55.201Z,38.67
2022-08-16T01:13:55.238Z,38.99
2022-08-16T01:14:55.275Z,39.64
2022-08-16T01:15:55.215Z,39.64
2022-08-16T01:16:55.308Z,39.64
2022-08-16T01:17:56.176Z,39.32
2022-08-16T01:18:55.149Z,39.48
2022-08-16T01:19:56.891Z,39.32
2022-08-16T01:20:55.171Z,39.32
2022-08-16T01:21:55.122Z,39.32
2022-08-16T01:22:55.838Z,38.83
2022-08-16T01:24:00.847Z,39.16
2022-08-16T01:24:56.202Z,38.19
2022-08-16T01:26:00.025Z,38.19
2022-08-16T01:26:56.519Z,38.83
2022-08-16T01:27:56.177Z,37.06
2022-08-16T01:28:55.140Z,38.03
2022-08-16T01:29:57.703Z,38.35
2022-08-16T01:30:55.052Z,38.51
2022-08-16T01:31:55.030Z,38.35
2022-08-16T01:33:02.137Z,37.54
2022-08-16T01:33:54.968Z,38.03
2022-08-16T01:34:56.783Z,37.87
2022-08-16T01:35:56.224Z,38.03
2022-08-16T01:36:58.154Z,38.35
2022-08-16T01:37:54.954Z,38.19
2022-08-16T01:38:57.251Z,38.67
2022-08-16T01:39:54.964Z,37.54
2022-08-16T01:40:54.936Z,37.87
2022-08-16T01:41:55.104Z,37.87
2022-08-16T01:42:55.482Z,38.35
2022-08-16T01:43:54.968Z,39.64
2022-08-16T01:44:54.989Z,38.35
2022-08-16T01:45:57.843Z,38.19
2022-08-16T01:46:54.974Z,40.12
2022-08-16T01:47:54.997Z,38.19
2022-08-16T01:48:54.941Z,38.03
2022-08-16T01:50:42.000Z,38.35
2022-08-16T01:51:08.533Z,38.35
2022-08-16T01:51:55.831Z,38.35
2022-08-16T01:52:54.915Z,38.51
2022-08-16T01:53:55.806Z,37.87
2022-08-16T01:54:54.824Z,38.35
2022-08-16T01:55:54.802Z,38.99
2022-08-16T01:56:54.784Z,37.87
2022-08-16T01:57:56.442Z,37.87
2022-08-16T01:58:54.939Z,39.32
2022-08-16T01:59:54.998Z,38.99
2022-08-16T02:00:54.887Z,40.44
2022-08-16T02:02:00.018Z,40.61
2022-08-16T02:02:55.782Z,39.48
2022-08-16T02:03:58.647Z,37.87
2022-08-16T02:04:55.707Z,38.67
2022-08-16T02:05:54.701Z,38.51
2022-08-16T02:06:54.686Z,38.51
2022-08-16T02:07:54.739Z,38.03
2022-08-16T02:08:54.671Z,38.03
2022-08-16T02:09:58.638Z,38.83
2022-08-16T02:10:55.692Z,38.51
2022-08-16T02:11:54.632Z,38.19
2022-08-16T02:13:00.103Z,38.35
2022-08-16T02:13:54.916Z,39.16
2022-08-16T02:14:54.628Z,38.67
2022-08-16T02:15:54.595Z,38.19
2022-08-16T02:16:54.600Z,38.67
2022-08-16T02:17:54.593Z,38.35
2022-08-16T02:18:54.570Z,37.54
2022-08-16T02:19:58.688Z,38.03
2022-08-16T02:20:55.558Z,38.51
2022-08-16T02:22:08.904Z,38.83
2022-08-16T02:22:55.562Z,39.48
2022-08-16T02:23:55.788Z,38.67
2022-08-16T02:24:54.788Z,38.35
2022-08-16T02:25:54.704Z,38.83
2022-08-16T02:26:54.582Z,38.51
2022-08-16T02:27:54.614Z,38.67
2022-08-16T02:28:54.580Z,39.32
2022-08-16T02:30:04.900Z,38.67
2022-08-16T02:30:55.538Z,38.67
2022-08-16T02:32:03.842Z,38.35
2022-08-16T02:32:55.515Z,38.67
2022-08-16T02:33:54.667Z,39.16
2022-08-16T02:34:56.350Z,39.64
2022-08-16T02:35:58.163Z,39.16
2022-08-16T02:36:55.402Z,38.51
2022-08-16T02:37:56.157Z,38.99
2022-08-16T02:38:54.450Z,39.16
2022-08-16T02:39:54.483Z,38.67
2022-08-16T02:40:54.859Z,41.41
2022-08-16T02:41:54.347Z,39.16
2022-08-16T02:42:54.406Z,39.80
2022-08-16T02:43:54.403Z,38.99
2022-08-16T02:44:54.414Z,39.16
2022-08-16T02:45:54.464Z,39.16
2022-08-16T02:46:54.402Z,39.32
2022-08-16T02:48:01.775Z,38.83
2022-08-16T02:48:55.377Z,38.51
2022-08-16T02:50:52.874Z,38.83
2022-08-16T02:51:06.784Z,38.99
2022-08-16T02:51:55.242Z,39.48
2022-08-16T02:52:54.313Z,39.32
2022-08-16T02:53:54.242Z,39.16
2022-08-16T02:54:55.261Z,39.48
2022-08-16T02:55:54.210Z,38.51
2022-08-16T02:56:54.254Z,39.48
2022-08-16T02:57:54.775Z,38.67
2022-08-16T02:58:54.319Z,39.48
2022-08-16T02:59:54.207Z,38.83
2022-08-16T03:00:56.075Z,38.83
2022-08-16T03:01:55.413Z,39.32
2022-08-16T03:02:55.969Z,38.19
2022-08-16T03:04:39.667Z,38.19
2022-08-16T03:04:55.127Z,38.83
2022-08-16T03:05:54.158Z,38.67
2022-08-16T03:06:56.823Z,38.35
2022-08-16T03:07:54.086Z,38.67
2022-08-16T03:08:54.138Z,37.87
2022-08-16T03:09:54.067Z,38.99
2022-08-16T03:10:54.068Z,39.16
2022-08-16T03:11:55.161Z,38.99
2022-08-16T03:12:56.290Z,40.44
2022-08-16T03:13:56.541Z,38.99
2022-08-16T03:14:54.024Z,40.93
2022-08-16T03:15:54.041Z,45.28
2022-08-16T03:16:59.052Z,39.32
2022-08-16T03:17:55.079Z,39.64
2022-08-16T03:18:54.005Z,39.96
2022-08-16T03:19:59.800Z,40.12
2022-08-16T03:20:55.702Z,43.18
2022-08-16T03:21:53.957Z,38.83
2022-08-16T03:22:53.946Z,38.67
2022-08-16T03:23:53.932Z,39.48
2022-08-16T03:24:53.938Z,39.32
2022-08-16T03:25:53.922Z,40.61
2022-08-16T03:26:53.977Z,39.64
2022-08-16T03:27:54.020Z,38.51
2022-08-16T03:28:53.986Z,40.44
2022-08-16T03:29:54.789Z,38.51
2022-08-16T03:30:55.374Z,39.16
2022-08-16T03:31:53.859Z,39.80
2022-08-16T03:32:53.958Z,39.32
2022-08-16T03:33:53.890Z,39.32
2022-08-16T03:34:53.941Z,39.64
2022-08-16T03:35:56.954Z,39.64
2022-08-16T03:36:53.868Z,41.09
2022-08-16T03:38:03.248Z,40.61
2022-08-16T03:38:54.828Z,39.32
2022-08-16T03:39:56.690Z,40.44
2022-08-16T03:40:53.771Z,40.12
2022-08-16T03:41:59.874Z,40.61
2022-08-16T03:43:18.951Z,40.12
2022-08-16T03:43:54.751Z,41.41
2022-08-16T03:45:03.430Z,40.28
2022-08-16T03:45:54.762Z,40.28
2022-08-16T03:46:53.716Z,41.25
2022-08-16T03:47:58.324Z,42.06
2022-08-16T03:48:53.720Z,43.34
2022-08-16T03:49:53.740Z,42.38
2022-08-16T03:51:00.087Z,41.89
2022-08-16T03:51:54.714Z,39.96
2022-08-16T03:52:59.613Z,40.12
2022-08-16T03:54:01.060Z,39.80
2022-08-16T03:54:59.406Z,42.38
2022-08-16T03:55:54.628Z,42.06
2022-08-16T03:56:56.797Z,46.25
2022-08-16T03:57:53.611Z,39.80
2022-08-16T03:58:53.610Z,43.51
2022-08-16T03:59:53.607Z,40.44
2022-08-16T04:00:59.041Z,45.92
2022-08-16T04:01:54.608Z,44.79
2022-08-16T04:02:53.570Z,39.16
2022-08-16T04:03:55.175Z,39.64
2022-08-16T04:04:53.639Z,42.06
2022-08-16T04:05:54.054Z,44.47
2022-08-16T04:06:53.789Z,40.61
2022-08-16T04:07:53.639Z,45.76
2022-08-16T04:08:53.603Z,43.18
2022-08-16T04:09:53.725Z,43.02
2022-08-16T04:10:53.633Z,43.67
2022-08-16T04:11:53.537Z,44.96
2022-08-16T04:12:59.354Z,45.44
2022-08-16T04:14:01.310Z,43.18
2022-08-16T04:14:58.389Z,40.77
2022-08-16T04:15:53.478Z,41.89
2022-08-16T04:16:53.424Z,40.61
2022-08-16T04:17:53.411Z,43.02
2022-08-16T04:18:53.424Z,43.99
2022-08-16T04:19:54.888Z,43.02
2022-08-16T04:20:53.409Z,43.51
2022-08-16T04:21:53.461Z,41.41
2022-08-16T04:22:53.419Z,42.06
2022-08-16T04:23:54.719Z,41.25
2022-08-16T04:24:54.803Z,42.06
2022-08-16T04:25:53.356Z,43.02
2022-08-16T04:26:53.327Z,41.73
2022-08-16T04:27:55.681Z,40.93
2022-08-16T04:29:16.350Z,41.41
2022-08-16T04:29:54.337Z,40.93
2022-08-16T04:30:54.293Z,41.41
2022-08-16T04:31:56.185Z,41.73
2022-08-16T04:32:53.310Z,40.93
2022-08-16T04:33:53.256Z,41.41
2022-08-16T04:34:53.670Z,43.34
2022-08-16T04:35:53.259Z,42.70
2022-08-16T04:36:53.282Z,44.47
2022-08-16T04:37:53.820Z,45.12
2022-08-16T04:38:53.253Z,40.93
2022-08-16T04:39:57.012Z,43.18
2022-08-16T04:40:54.358Z,43.67
2022-08-16T04:41:57.128Z,41.73
2022-08-16T04:42:53.205Z,50.76
2022-08-16T04:43:53.196Z,41.25
2022-08-16T04:44:55.331Z,42.70
2022-08-16T04:46:00.129Z,41.73
2022-08-16T04:47:02.960Z,40.77
2022-08-16T04:47:56.186Z,41.09
2022-08-16T04:48:53.265Z,42.70
2022-08-16T04:49:53.248Z,41.89
2022-08-16T04:50:53.040Z,46.73
2022-08-16T04:51:53.877Z,47.53
2022-08-16T04:52:53.305Z,45.60
2022-08-16T04:53:53.042Z,42.86
2022-08-16T04:54:53.070Z,41.25
2022-08-16T04:55:53.644Z,41.73
2022-08-16T04:56:53.092Z,45.44
2022-08-16T04:57:53.645Z,46.41
2022-08-16T04:58:53.059Z,49.63
2022-08-16T04:59:54.149Z,39.80
2022-08-16T05:00:53.163Z,40.44
2022-08-16T05:01:58.788Z,40.44
2022-08-16T05:02:55.628Z,44.15
2022-08-16T05:04:00.434Z,43.51
2022-08-16T05:04:54.009Z,44.96
2022-08-16T05:05:59.598Z,46.41
2022-08-16T05:06:54.039Z,44.96
2022-08-16T05:07:58.668Z,44.15
2022-08-16T05:08:56.432Z,41.89
2022-08-16T05:09:52.921Z,42.22
2022-08-16T05:10:52.897Z,48.50
2022-08-16T05:11:57.585Z,46.25
2022-08-16T05:12:52.887Z,46.41
2022-08-16T05:13:52.887Z,43.67
2022-08-16T05:15:02.094Z,41.57
2022-08-16T05:15:53.870Z,45.12
2022-08-16T05:16:52.840Z,50.11
2022-08-16T05:17:58.796Z,46.08
2022-08-16T05:18:53.822Z,40.44
2022-08-16T05:19:57.507Z,40.12
2022-08-16T05:21:01.802Z,48.50
2022-08-16T05:21:53.793Z,41.73
2022-08-16T05:22:53.052Z,41.73
2022-08-16T05:23:58.564Z,41.25
2022-08-16T05:24:54.950Z,41.09
2022-08-16T05:25:52.905Z,41.25
2022-08-16T05:26:52.839Z,44.31
2022-08-16T05:27:52.852Z,43.83
2022-08-16T05:28:55.798Z,45.12
2022-08-16T05:30:01.040Z,41.41
2022-08-16T05:30:53.881Z,41.41
2022-08-16T05:31:53.243Z,45.44
2022-08-16T05:32:52.888Z,40.61
2022-08-16T05:33:53.530Z,40.28
2022-08-16T05:34:52.756Z,41.25
2022-08-16T05:35:54.954Z,40.77
2022-08-16T05:36:52.641Z,40.28
2022-08-16T05:37:52.653Z,41.57
2022-08-16T05:38:52.621Z,42.70
2022-08-16T05:39:55.268Z,45.76
2022-08-16T05:40:59.724Z,46.89
2022-08-16T05:41:53.603Z,44.96
2022-08-16T05:42:52.733Z,47.53
2022-08-16T05:43:52.580Z,46.89
2022-08-16T05:44:53.624Z,44.79
2022-08-16T05:45:52.590Z,43.18
2022-08-16T05:46:52.546Z,46.57
2022-08-16T05:48:00.307Z,48.50
2022-08-16T05:48:54.708Z,49.79
2022-08-16T05:49:52.542Z,43.51
2022-08-16T05:50:52.978Z,41.09
2022-08-16T05:51:52.497Z,40.28
2022-08-16T05:52:52.481Z,40.93
2022-08-16T05:53:52.487Z,45.44
2022-08-16T05:54:58.443Z,43.02
2022-08-16T05:55:53.463Z,43.83
2022-08-16T05:56:52.434Z,41.57
2022-08-16T05:57:52.821Z,42.06
2022-08-16T05:58:52.431Z,45.76
2022-08-16T05:59:59.819Z,40.61
2022-08-16T06:00:53.420Z,44.63
2022-08-16T06:01:52.459Z,45.92
2022-08-16T06:02:52.399Z,46.25
2022-08-16T06:03:52.424Z,48.02
2022-08-16T06:04:52.408Z,46.73
2022-08-16T06:05:52.475Z,44.31
2022-08-16T06:06:56.974Z,41.57
2022-08-16T06:07:58.243Z,46.41
2022-08-16T06:08:53.381Z,44.47
2022-08-16T06:09:52.512Z,42.38
2022-08-16T06:11:02.629Z,46.08
2022-08-16T06:11:53.341Z,41.41
2022-08-16T06:12:55.359Z,40.12
2022-08-16T06:13:52.306Z,46.89
2022-08-16T06:14:52.309Z,41.09
2022-08-16T06:15:52.312Z,41.41
2022-08-16T06:16:52.274Z,41.41
2022-08-16T06:17:52.255Z,41.25
2022-08-16T06:18:52.253Z,40.28
2022-08-16T06:19:52.228Z,48.02
2022-08-16T06:20:55.089Z,43.99
2022-08-16T06:21:54.869Z,41.73
2022-08-16T06:22:58.658Z,41.57
2022-08-16T06:23:54.330Z,45.76
2022-08-16T06:24:54.447Z,44.96
2022-08-16T06:25:53.213Z,44.47
2022-08-16T06:26:57.866Z,43.34
2022-08-16T06:27:57.476Z,40.93
2022-08-16T06:28:53.136Z,39.96
2022-08-16T06:29:52.131Z,47.70
2022-08-16T06:30:52.222Z,43.34
2022-08-16T06:31:52.209Z,41.41
2022-08-16T06:32:52.429Z,41.41
2022-08-16T06:33:52.294Z,42.54
2022-08-16T06:34:56.707Z,43.99
2022-08-16T06:35:55.074Z,43.34
2022-08-16T06:36:59.364Z,45.92
2022-08-16T06:37:53.056Z,50.60
2022-08-16T06:38:55.375Z,42.22
2022-08-16T06:39:52.077Z,42.86
2022-08-16T06:40:52.027Z,45.92
2022-08-16T06:41:52.017Z,41.09
2022-08-16T06:42:57.141Z,42.06
2022-08-16T06:43:51.990Z,41.25
2022-08-16T06:44:51.983Z,44.15
2022-08-16T06:45:51.987Z,43.67
2022-08-16T06:46:51.925Z,41.25
2022-08-16T06:47:52.851Z,45.44
2022-08-16T06:48:52.004Z,40.44
2022-08-16T06:49:53.837Z,45.44
2022-08-16T06:50:52.068Z,47.05
2022-08-16T06:51:52.618Z,49.31
2022-08-16T06:53:00.223Z,44.31
2022-08-16T06:53:52.920Z,41.09
2022-08-16T06:54:51.973Z,40.61
2022-08-16T06:55:53.878Z,44.79
2022-08-16T06:56:54.207Z,48.66
2022-08-16T06:57:51.861Z,41.41
2022-08-16T06:58:51.985Z,40.12
2022-08-16T06:59:58.172Z,40.28
2022-08-16T07:00:51.903Z,39.16
2022-08-16T07:01:54.810Z,38.67
2022-08-16T07:02:52.295Z,43.83
2022-08-16T07:03:55.708Z,41.41
2022-08-16T07:04:52.888Z,39.64
2022-08-16T07:05:52.051Z,37.54
2022-08-16T07:06:51.802Z,37.71
2022-08-16T07:07:51.759Z,40.12
2022-08-16T07:08:51.718Z,40.61
2022-08-16T07:09:51.741Z,39.48
2022-08-16T07:10:51.847Z,43.02
2022-08-16T07:11:52.199Z,44.15
2022-08-16T07:13:03.873Z,39.32
2022-08-16T07:14:00.137Z,40.44
2022-08-16T07:14:52.689Z,42.38
2022-08-16T07:15:51.703Z,38.03
2022-08-16T07:16:51.756Z,45.60
2022-08-16T07:17:51.746Z,43.34
2022-08-16T07:18:59.097Z,39.32
2022-08-16T07:20:03.812Z,43.83
2022-08-16T07:20:52.681Z,41.25
2022-08-16T07:21:59.639Z,38.51
2022-08-16T07:22:53.114Z,46.73
2022-08-16T07:23:57.814Z,43.02
2022-08-16T07:24:52.562Z,43.18
2022-08-16T07:25:51.608Z,38.67
2022-08-16T07:26:51.525Z,41.09
2022-08-16T07:27:51.504Z,38.83
2022-08-16T07:28:51.601Z,42.38
2022-08-16T07:29:51.627Z,39.64
2022-08-16T07:30:51.555Z,39.80
2022-08-16T07:31:51.545Z,43.18
2022-08-16T07:32:52.088Z,38.67
2022-08-16T07:33:54.862Z,40.93
2022-08-16T07:34:51.503Z,39.16
2022-08-16T07:35:51.503Z,39.48
2022-08-16T07:36:58.229Z,44.79
2022-08-16T07:37:51.412Z,45.28
2022-08-16T07:38:51.522Z,39.16
2022-08-16T07:39:51.571Z,40.28
2022-08-16T07:40:59.747Z,46.41
2022-08-16T07:41:52.432Z,38.83
2022-08-16T07:42:51.420Z,39.16
2022-08-16T07:43:51.414Z,46.08
2022-08-16T07:44:51.407Z,39.48
2022-08-16T07:45:53.251Z,39.16
2022-08-16T07:46:55.536Z,46.41
2022-08-16T07:47:51.495Z,38.19
2022-08-16T07:48:51.407Z,38.19
2022-08-16T07:49:52.863Z,44.79
2022-08-16T07:50:55.740Z,46.41
2022-08-16T07:51:55.918Z,40.77
2022-08-16T07:52:51.461Z,38.51
2022-08-16T07:54:02.526Z,40.61
2022-08-16T07:54:53.323Z,39.16
2022-08-16T07:55:51.424Z,38.03
2022-08-16T07:56:51.363Z,46.73
2022-08-16T07:58:00.659Z,42.06
2022-08-16T07:58:55.625Z,38.83
2022-08-16T07:59:52.274Z,37.22
2022-08-16T08:00:51.551Z,38.03
2022-08-16T08:01:53.024Z,39.48
2022-08-16T08:02:52.052Z,43.99
2022-08-16T08:03:51.249Z,43.99
2022-08-16T08:04:51.196Z,43.51
2022-08-16T08:05:51.223Z,40.28
2022-08-16T08:06:51.378Z,42.22
2022-08-16T08:07:51.446Z,38.35
2022-08-16T08:08:52.782Z,35.93
2022-08-16T08:09:51.166Z,41.89
2022-08-16T08:10:51.249Z,40.93
2022-08-16T08:12:00.941Z,39.80
2022-08-16T08:12:52.321Z,38.67
2022-08-16T08:13:51.339Z,36.58
2022-08-16T08:14:51.163Z,45.44
2022-08-16T08:15:53.098Z,37.22
2022-08-16T08:16:51.142Z,39.32
2022-08-16T08:17:51.237Z,43.83
2022-08-16T08:18:56.136Z,41.89
2022-08-16T08:19:53.326Z,38.19
2022-08-16T08:20:59.560Z,41.73
2022-08-16T08:21:59.118Z,36.58
2022-08-16T08:22:52.024Z,40.77
2022-08-16T08:23:51.020Z,41.09
2022-08-16T08:24:51.006Z,37.71
2022-08-16T08:25:52.743Z,38.83
2022-08-16T08:26:51.005Z,35.13
2022-08-16T08:27:50.980Z,36.09
2022-08-16T08:28:51.966Z,36.09
2022-08-16T08:30:43.955Z,34.97
2022-08-16T08:31:02.743Z,38.83
2022-08-16T08:31:51.962Z,39.32
2022-08-16T08:32:59.736Z,39.80
2022-08-16T08:33:52.147Z,35.77
2022-08-16T08:34:50.913Z,35.45
2022-08-16T08:35:51.291Z,34.00
2022-08-16T08:36:54.418Z,41.89
2022-08-16T08:37:55.280Z,39.96
2022-08-16T08:38:51.903Z,38.51
2022-08-16T08:39:55.218Z,33.52
2022-08-16T08:40:50.954Z,34.00
2022-08-16T08:41:51.742Z,41.73
2022-08-16T08:42:50.882Z,36.74
2022-08-16T08:43:51.971Z,40.77
2022-08-16T08:44:50.839Z,36.90
2022-08-16T08:45:53.011Z,40.28
2022-08-16T08:46:59.799Z,33.52
2022-08-16T08:47:54.299Z,36.42
2022-08-16T08:49:00.084Z,38.51
2022-08-16T08:49:55.890Z,40.28
2022-08-16T08:50:51.759Z,46.08
2022-08-16T08:51:50.799Z,34.32
2022-08-16T08:52:50.914Z,45.44
2022-08-16T08:53:57.961Z,44.15
2022-08-16T08:54:51.669Z,29.65
2022-08-16T08:55:58.751Z,31.10
2022-08-16T08:56:50.717Z,31.10
2022-08-16T08:57:50.647Z,32.23
2022-08-16T08:58:54.800Z,37.54
2022-08-16T08:59:51.681Z,29.81
2022-08-16T09:00:51.640Z,30.78
2022-08-16T09:01:56.793Z,35.29
2022-08-16T09:02:52.199Z,36.58
2022-08-16T09:03:50.697Z,37.38
2022-08-16T09:04:50.646Z,43.02
2022-08-16T09:05:51.650Z,35.45
2022-08-16T09:06:50.671Z,38.83
2022-08-16T09:08:00.631Z,40.93
2022-08-16T09:08:51.635Z,38.67
2022-08-16T09:09:50.677Z,42.54
2022-08-16T09:11:02.241Z,35.61
2022-08-16T09:12:04.025Z,36.58
2022-08-16T09:12:51.843Z,44.47
2022-08-16T09:13:51.137Z,43.02
2022-08-16T09:14:51.287Z,42.70
2022-08-16T09:15:50.578Z,35.93
2022-08-16T09:17:02.798Z,37.54
2022-08-16T09:17:53.516Z,34.80
2022-08-16T09:18:54.902Z,34.48
2022-08-16T09:19:55.177Z,36.58
2022-08-16T09:20:58.876Z,35.45
2022-08-16T09:21:56.018Z,35.93
2022-08-16T09:22:51.330Z,37.54
2022-08-16T09:23:50.487Z,36.90
2022-08-16T09:24:52.041Z,34.64
2022-08-16T09:25:50.635Z,38.67
2022-08-16T09:26:52.460Z,37.22
2022-08-16T09:27:57.792Z,40.77
2022-08-16T09:29:14.722Z,35.13
2022-08-16T09:29:59.892Z,36.42
2022-08-16T09:30:51.411Z,41.73
2022-08-16T09:31:53.529Z,35.93
2022-08-16T09:32:50.654Z,35.61
2022-08-16T09:33:51.975Z,33.35
2022-08-16T09:34:50.413Z,32.23
2022-08-16T09:35:53.111Z,35.45
2022-08-16T09:36:54.635Z,33.84
2022-08-16T09:38:00.640Z,30.62
2022-08-16T09:38:51.311Z,35.77
2022-08-16T09:39:51.407Z,32.87
2022-08-16T09:40:50.420Z,30.78
2022-08-16T09:41:53.559Z,35.29
2022-08-16T09:43:05.275Z,31.26
2022-08-16T09:43:58.009Z,38.83
2022-08-16T09:45:11.854Z,40.77
2022-08-16T09:45:51.290Z,36.09
2022-08-16T09:46:52.864Z,30.13
2022-08-16T09:47:57.320Z,32.23
2022-08-16T09:48:51.303Z,31.26
2022-08-16T09:49:51.046Z,31.58
2022-08-16T09:50:50.248Z,41.57
2022-08-16T09:51:50.413Z,44.31
2022-08-16T09:52:50.459Z,33.68
2022-08-16T09:53:54.014Z,33.19
2022-08-16T09:54:50.254Z,36.74
2022-08-16T09:55:50.360Z,42.22
2022-08-16T09:56:53.318Z,37.71
2022-08-16T09:57:52.948Z,37.54
2022-08-16T09:59:05.525Z,37.87
2022-08-16T09:59:56.379Z,34.64
2022-08-16T10:00:51.217Z,41.41
2022-08-16T10:01:50.200Z,33.35
2022-08-16T10:02:50.286Z,42.70
2022-08-16T10:04:02.773Z,37.87
2022-08-16T10:04:54.622Z,42.22
2022-08-16T10:05:50.118Z,39.80
2022-08-16T10:06:50.210Z,30.62
2022-08-16T10:07:50.536Z,31.10
2022-08-16T10:09:05.375Z,33.52
2022-08-16T10:09:55.797Z,42.86
2022-08-16T10:10:51.154Z,36.25
2022-08-16T10:11:51.157Z,29.49
2022-08-16T10:12:56.057Z,32.07
2022-08-16T10:13:51.232Z,30.45
2022-08-16T10:14:50.242Z,31.10
2022-08-16T10:15:55.427Z,31.10
2022-08-16T10:16:51.040Z,32.39
2022-08-16T10:18:00.396Z,35.29
2022-08-16T10:19:00.656Z,31.58
2022-08-16T10:19:51.007Z,37.71
2022-08-16T10:20:50.022Z,31.58
2022-08-16T10:21:56.562Z,40.28
2022-08-16T10:22:55.412Z,35.61
2022-08-16T10:23:50.976Z,38.83
2022-08-16T10:24:55.573Z,31.58
2022-08-16T10:27:00.758Z,32.55
2022-08-16T10:27:20.324Z,33.19
2022-08-16T10:27:56.802Z,38.03
2022-08-16T10:28:51.185Z,38.67
2022-08-16T10:30:00.098Z,35.45
2022-08-16T10:30:56.605Z,29.49
2022-08-16T10:31:53.226Z,29.49
2022-08-16T10:32:50.031Z,35.29
2022-08-16T10:33:49.985Z,30.45
2022-08-16T10:34:51.390Z,37.71
2022-08-16T10:35:49.971Z,35.29
2022-08-16T10:36:54.367Z,33.03
2022-08-16T10:37:50.175Z,41.25
2022-08-16T10:38:49.902Z,32.39
2022-08-16T10:39:49.966Z,29.97
2022-08-16T10:40:50.839Z,36.25
2022-08-16T10:41:49.858Z,36.74
2022-08-16T10:42:50.398Z,32.55
2022-08-16T10:43:50.278Z,33.52
2022-08-16T10:44:53.779Z,37.38
2022-08-16T10:45:57.191Z,29.49
2022-08-16T10:46:50.900Z,31.10
2022-08-16T10:48:03.194Z,38.03
2022-08-16T10:48:50.862Z,39.64
2022-08-16T10:49:49.955Z,30.78
2022-08-16T10:50:49.813Z,30.29
2022-08-16T10:52:03.272Z,32.39
2022-08-16T10:52:52.707Z,36.25
2022-08-16T10:53:49.846Z,31.58
2022-08-16T10:55:57.857Z,39.16
2022-08-16T10:56:55.539Z,29.81
2022-08-16T10:57:50.908Z,28.04
2022-08-16T10:58:49.709Z,32.23
2022-08-16T10:59:53.203Z,42.06
2022-08-16T11:00:55.471Z,35.77
2022-08-16T11:02:59.982Z,39.32
2022-08-16T11:03:54.546Z,33.52
2022-08-16T11:05:08.045Z,31.10
2022-08-16T11:06:07.440Z,29.49
2022-08-16T11:07:54.885Z,33.19
2022-08-16T11:09:21.017Z,37.87
2022-08-16T11:09:50.672Z,35.45
2022-08-16T11:11:11.364Z,30.94
2022-08-16T11:12:52.702Z,31.74
2022-08-16T11:13:58.066Z,29.65
2022-08-16T11:15:55.487Z,35.45
2022-08-16T11:17:11.040Z,30.45
2022-08-16T11:18:36.724Z,34.97
2022-08-16T11:19:05.345Z,29.81
2022-08-16T11:20:50.632Z,34.32
2022-08-16T11:22:50.652Z,32.07
2022-08-16T11:23:56.988Z,36.90
2022-08-16T11:25:11.965Z,36.42
2022-08-16T11:26:07.060Z,32.71
2022-08-16T11:27:18.718Z,31.26
2022-08-16T11:27:50.664Z,34.16
2022-08-16T11:29:52.091Z,41.73
2022-08-16T11:30:57.413Z,46.57
2022-08-16T11:31:54.300Z,32.07
2022-08-16T11:32:49.642Z,36.90
2022-08-16T11:33:53.097Z,40.61
2022-08-16T11:35:13.299Z,34.16
2022-08-16T11:36:53.690Z,39.96
2022-08-16T11:38:06.077Z,36.58
2022-08-16T11:38:55.749Z,38.51
2022-08-16T11:39:55.257Z,39.32
2022-08-16T11:40:52.327Z,40.44
2022-08-16T11:41:49.420Z,37.54
2022-08-16T11:42:49.407Z,34.97
2022-08-16T11:43:49.377Z,36.90
2022-08-16T11:44:56.283Z,37.54
2022-08-16T11:45:53.600Z,38.03
2022-08-16T11:46:49.363Z,36.58
2022-08-16T11:47:49.855Z,31.90
2022-08-16T11:48:49.348Z,34.80
2022-08-16T11:49:49.388Z,38.35
2022-08-16T11:50:49.371Z,35.45
2022-08-16T11:51:49.317Z,36.90
2022-08-16T11:52:49.375Z,38.35
2022-08-16T11:53:49.312Z,33.68
2022-08-16T11:54:53.823Z,37.87
2022-08-16T11:55:50.659Z,33.35
2022-08-16T11:56:56.621Z,36.42
2022-08-16T11:57:50.560Z,41.09
2022-08-16T11:58:51.678Z,41.09
2022-08-16T11:59:50.266Z,41.57
2022-08-16T12:00:51.985Z,37.54
2022-08-16T12:01:58.962Z,32.55
2022-08-16T12:02:50.461Z,32.71
2022-08-16T12:03:49.452Z,33.52
2022-08-16T12:04:51.623Z,34.97
2022-08-16T12:05:52.020Z,32.39
2022-08-16T12:06:49.290Z,32.07
2022-08-16T12:07:49.660Z,42.06
2022-08-16T12:08:49.222Z,35.61
2022-08-16T12:09:49.199Z,35.13
2022-08-16T12:10:49.197Z,32.55
2022-08-16T12:11:53.200Z,33.52
2022-08-16T12:12:49.221Z,34.32
2022-08-16T12:13:49.248Z,39.16
2022-08-16T12:14:50.561Z,34.80
2022-08-16T12:15:49.219Z,38.67
2022-08-16T12:16:55.278Z,36.58
2022-08-16T12:17:50.416Z,40.44
2022-08-16T12:19:49.138Z,34.32
2022-08-16T12:20:49.112Z,37.22
2022-08-16T12:21:58.092Z,41.89
2022-08-16T12:22:50.178Z,36.09
2022-08-16T12:23:49.365Z,39.32
2022-08-16T12:24:52.093Z,33.35
2022-08-16T12:25:49.080Z,33.19
2022-08-16T12:26:49.168Z,35.61
2022-08-16T12:27:49.750Z,32.23
2022-08-16T12:28:54.830Z,31.42
2022-08-16T12:29:50.054Z,34.80
2022-08-16T12:30:49.043Z,32.55
2022-08-16T12:31:59.268Z,35.77
2022-08-16T12:32:51.601Z,33.03
2022-08-16T12:33:50.789Z,34.32
2022-08-16T12:34:52.846Z,33.84
2022-08-16T12:35:49.103Z,32.07
2022-08-16T12:36:49.201Z,33.03
2022-08-16T12:37:49.064Z,35.29
2022-08-16T12:38:50.066Z,40.93
2022-08-16T12:39:51.025Z,35.13
2022-08-16T12:40:48.989Z,33.35
2022-08-16T12:41:48.972Z,38.35
2022-08-16T12:42:52.947Z,37.22
2022-08-16T12:43:48.970Z,41.25
2022-08-16T12:44:48.951Z,36.90
2022-08-16T12:45:48.936Z,41.57
2022-08-16T12:46:48.977Z,45.44
2022-08-16T12:47:48.921Z,36.42
2022-08-16T12:48:48.982Z,38.51
2022-08-16T12:49:48.918Z,35.77
2022-08-16T12:50:50.198Z,32.23
2022-08-16T12:51:58.105Z,32.39
2022-08-16T12:52:52.252Z,35.29
2022-08-16T12:53:48.898Z,33.35
2022-08-16T12:54:54.984Z,37.22
2022-08-16T12:55:49.814Z,40.61
2022-08-16T12:56:50.298Z,37.71
2022-08-16T12:57:58.073Z,34.16
2022-08-16T12:58:51.812Z,36.90
2022-08-16T12:59:49.101Z,40.12
2022-08-16T13:00:50.267Z,32.87
2022-08-16T13:01:50.225Z,31.58